createdAt,value
2022-07-27T00:00:17.295Z,16.53
2022-07-27T00:03:02.561Z,16.47
2022-07-27T00:05:47.863Z,16.37
2022-07-27T00:08:33.528Z,16.26
2022-07-27T00:11:18.486Z,16.22
2022-07-27T00:14:04.121Z,16.21
2022-07-27T00:16:49.489Z,16.25
2022-07-27T00:19:34.752Z,16.29
2022-07-27T00:22:19.711Z,16.28
2022-07-27T00:25:05.674Z,16.25
2022-07-27T00:27:50.664Z,16.25
2022-07-27T00:30:36.355Z,16.21
2022-07-27T00:33:21.704Z,16.22
2022-07-27T00:36:07.418Z,16.21
2022-07-27T00:38:52.424Z,16.16
2022-07-27T00:41:37.410Z,16.22
2022-07-27T00:44:30.011Z,16.17
2022-07-27T00:47:15.201Z,16.06
2022-07-27T00:50:01.090Z,15.97
2022-07-27T00:52:46.659Z,15.95
2022-07-27T00:55:32.792Z,15.98
2022-07-27T00:58:18.735Z,16.03
2022-07-27T01:01:04.670Z,16.00
2022-07-27T01:03:49.861Z,15.93
2022-07-27T01:06:35.405Z,15.89
2022-07-27T01:09:20.843Z,15.71
2022-07-27T01:12:08.316Z,15.79
2022-07-27T01:14:54.888Z,15.79
2022-07-27T01:17:39.986Z,15.72
2022-07-27T01:20:25.623Z,15.65
2022-07-27T01:23:10.790Z,15.61
2022-07-27T01:25:55.991Z,15.55
2022-07-27T01:28:44.262Z,15.52
2022-07-27T01:31:30.171Z,15.47
2022-07-27T01:34:15.572Z,15.46
2022-07-27T01:37:01.397Z,15.49
2022-07-27T01:39:46.582Z,15.58
2022-07-27T01:42:32.005Z,15.58
2022-07-27T01:45:17.455Z,15.67
2022-07-27T01:48:02.596Z,15.67
2022-07-27T01:50:47.820Z,15.72
2022-07-27T01:53:33.049Z,15.56
2022-07-27T01:56:18.347Z,15.45
2022-07-27T01:59:03.099Z,15.51
2022-07-27T02:01:48.021Z,15.51
2022-07-27T02:04:33.337Z,15.54
2022-07-27T02:07:18.671Z,15.45
2022-07-27T02:10:04.433Z,15.44
2022-07-27T02:12:50.901Z,15.38
2022-07-27T02:15:43.268Z,15.47
2022-07-27T02:18:36.259Z,15.44
2022-07-27T02:21:22.145Z,15.45
2022-07-27T02:24:07.254Z,15.46
2022-07-27T02:26:52.663Z,15.41
2022-07-27T02:29:37.822Z,15.31
2022-07-27T02:32:23.001Z,15.39
2022-07-27T02:35:18.640Z,15.37
2022-07-27T02:38:05.130Z,15.52
2022-07-27T02:40:50.147Z,15.51
2022-07-27T02:43:35.343Z,15.43
2022-07-27T02:46:20.831Z,15.45
2022-07-27T02:49:06.120Z,15.33
2022-07-27T02:51:52.979Z,15.28
2022-07-27T02:54:38.473Z,15.24
2022-07-27T02:57:24.030Z,15.25
2022-07-27T03:00:14.415Z,15.14
2022-07-27T03:02:59.774Z,15.17
2022-07-27T03:05:45.078Z,15.16
2022-07-27T03:08:30.325Z,15.07
2022-07-27T03:11:15.792Z,15.04
2022-07-27T03:14:01.373Z,15.05
2022-07-27T03:16:46.835Z,14.96
2022-07-27T03:19:32.264Z,15.00
2022-07-27T03:22:17.071Z,14.91
2022-07-27T03:25:02.600Z,14.87
2022-07-27T03:27:47.722Z,14.72
2022-07-27T03:30:33.195Z,14.65
2022-07-27T03:33:18.667Z,14.63
2022-07-27T03:36:04.173Z,14.61
2022-07-27T03:38:49.239Z,14.60
2022-07-27T03:41:34.882Z,14.51
2022-07-27T03:44:20.119Z,14.43
2022-07-27T03:47:05.543Z,14.39
2022-07-27T03:49:50.807Z,14.33
2022-07-27T03:52:36.167Z,14.37
2022-07-27T03:55:21.945Z,14.43
2022-07-27T03:58:06.985Z,14.45
2022-07-27T04:00:52.500Z,14.60
2022-07-27T04:03:42.392Z,14.67
2022-07-27T04:06:29.473Z,14.76
2022-07-27T04:09:14.719Z,14.74
2022-07-27T04:12:00.426Z,14.73
2022-07-27T04:14:46.376Z,14.76
2022-07-27T04:17:56.350Z,14.74
2022-07-27T04:20:36.878Z,14.74
2022-07-27T04:23:22.286Z,14.79
2022-07-27T04:26:07.136Z,14.80
2022-07-27T04:28:53.152Z,14.77
2022-07-27T04:31:38.406Z,14.65
2022-07-27T04:34:24.002Z,14.50
2022-07-27T04:37:09.285Z,14.39
2022-07-27T04:39:58.036Z,14.47
2022-07-27T04:42:49.548Z,14.67
2022-07-27T04:45:35.169Z,14.79
2022-07-27T04:48:20.116Z,14.87
2022-07-27T04:51:05.644Z,14.86
2022-07-27T04:53:53.440Z,14.83
2022-07-27T04:56:43.715Z,14.79
2022-07-27T04:59:29.022Z,14.80
2022-07-27T05:02:13.940Z,14.89
2022-07-27T05:05:02.237Z,15.00
2022-07-27T05:07:47.692Z,15.02
2022-07-27T05:10:33.229Z,15.06
2022-07-27T05:13:17.939Z,15.15
2022-07-27T05:16:03.014Z,15.14
2022-07-27T05:18:48.372Z,15.16
2022-07-27T05:21:33.883Z,15.17
2022-07-27T05:24:19.080Z,15.28
2022-07-27T05:27:04.363Z,15.33
2022-07-27T05:29:49.334Z,15.37
2022-07-27T05:32:35.162Z,15.39
2022-07-27T05:35:21.906Z,15.42
2022-07-27T05:38:07.057Z,15.33
2022-07-27T05:40:52.309Z,15.32
2022-07-27T05:43:37.270Z,15.35
2022-07-27T05:46:23.139Z,15.27
2022-07-27T05:49:08.716Z,15.00
2022-07-27T05:51:53.844Z,14.94
2022-07-27T05:54:39.022Z,15.02
2022-07-27T05:57:23.978Z,15.13
2022-07-27T06:00:10.807Z,15.22
2022-07-27T06:02:56.124Z,15.38
2022-07-27T06:05:41.481Z,15.43
2022-07-27T06:08:26.804Z,15.54
2022-07-27T06:11:12.448Z,15.61
2022-07-27T06:13:57.526Z,15.72
2022-07-27T06:16:45.356Z,15.74
2022-07-27T06:19:36.082Z,15.92
2022-07-27T06:22:21.761Z,16.00
2022-07-27T06:25:07.573Z,16.09
2022-07-27T06:27:53.179Z,16.17
2022-07-27T06:30:38.603Z,16.17
2022-07-27T06:33:32.355Z,16.25
2022-07-27T06:36:17.803Z,16.17
2022-07-27T06:39:03.213Z,16.25
2022-07-27T06:41:48.541Z,16.25
2022-07-27T06:44:33.949Z,16.42
2022-07-27T06:47:19.726Z,16.38
2022-07-27T06:50:05.689Z,16.41
2022-07-27T06:52:51.122Z,16.50
2022-07-27T06:55:36.550Z,16.53
2022-07-27T06:58:21.350Z,16.60
2022-07-27T07:01:06.748Z,16.70
2022-07-27T07:03:52.082Z,16.89
2022-07-27T07:06:37.343Z,17.00
2022-07-27T07:09:22.614Z,17.15
2022-07-27T07:12:07.939Z,17.34
2022-07-27T07:14:53.210Z,17.62
2022-07-27T07:17:38.227Z,17.65
2022-07-27T07:20:23.923Z,18.03
2022-07-27T07:23:09.684Z,18.39
2022-07-27T07:25:55.089Z,18.72
2022-07-27T07:28:40.498Z,18.97
2022-07-27T07:31:25.756Z,19.34
2022-07-27T07:34:10.725Z,19.49
2022-07-27T07:36:56.152Z,19.72
2022-07-27T07:39:41.589Z,19.92
2022-07-27T07:42:26.904Z,20.12
2022-07-27T07:45:12.519Z,20.00
2022-07-27T07:47:58.145Z,20.40
2022-07-27T07:50:43.378Z,20.73
2022-07-27T07:53:28.723Z,20.74
2022-07-27T07:56:14.117Z,20.56
2022-07-27T07:58:59.423Z,21.54
2022-07-27T08:01:44.341Z,22.07
2022-07-27T08:04:29.927Z,21.96
2022-07-27T08:07:15.007Z,21.55
2022-07-27T08:10:00.338Z,21.45
2022-07-27T08:12:48.728Z,21.86
2022-07-27T08:15:35.921Z,21.86
2022-07-27T08:18:22.048Z,20.88
2022-07-27T08:21:07.335Z,21.75
2022-07-27T08:23:53.434Z,22.32
2022-07-27T08:26:43.570Z,22.74
2022-07-27T08:29:36.546Z,23.44
2022-07-27T08:32:22.183Z,23.60
2022-07-27T08:35:07.775Z,24.33
2022-07-27T08:37:53.632Z,24.67
2022-07-27T08:40:42.765Z,25.31
2022-07-27T08:46:46.860Z,24.90
2022-07-27T08:49:43.041Z,24.31
2022-07-27T08:52:29.323Z,23.95
2022-07-27T08:55:19.649Z,23.33
2022-07-27T08:58:06.276Z,22.88
2022-07-27T09:00:51.993Z,22.13
2022-07-27T09:03:37.287Z,22.05
2022-07-27T09:06:42.652Z,21.99
2022-07-27T09:09:27.838Z,21.44
2022-07-27T09:12:12.876Z,21.31
2022-07-27T09:15:04.426Z,21.33
2022-07-27T09:17:50.367Z,21.27
2022-07-27T09:20:35.578Z,21.12
2022-07-27T09:23:26.372Z,20.50
2022-07-27T09:26:30.053Z,20.14
2022-07-27T09:29:17.204Z,19.84
2022-07-27T09:32:14.189Z,20.40
2022-07-27T09:35:14.851Z,21.03
2022-07-27T09:38:23.727Z,21.23
2022-07-27T09:41:09.114Z,21.30
2022-07-27T09:44:30.570Z,21.13
2022-07-27T09:47:24.630Z,21.07
2022-07-27T09:50:21.241Z,20.28
2022-07-27T09:53:41.359Z,20.11
2022-07-27T09:56:30.139Z,19.85
2022-07-27T09:59:18.889Z,20.03
2022-07-27T10:02:05.616Z,20.05
2022-07-27T10:04:50.878Z,20.18
2022-07-27T10:07:36.263Z,20.23
2022-07-27T10:10:23.757Z,20.19
2022-07-27T10:13:09.155Z,20.06
2022-07-27T10:15:55.128Z,20.26
2022-07-27T10:18:56.030Z,20.46
2022-07-27T10:21:45.815Z,20.35
2022-07-27T10:24:33.382Z,20.58
2022-07-27T10:27:29.180Z,20.45
2022-07-27T10:30:17.256Z,19.87
2022-07-27T10:33:36.720Z,19.99
2022-07-27T10:36:31.277Z,20.24
2022-07-27T10:39:38.482Z,20.77
2022-07-27T10:42:30.774Z,20.89
2022-07-27T10:45:17.614Z,21.14
2022-07-27T10:48:02.693Z,21.33
2022-07-27T10:50:48.095Z,21.52
2022-07-27T10:54:10.566Z,21.87
2022-07-27T10:56:48.240Z,22.79
2022-07-27T11:00:07.041Z,23.02
2022-07-27T11:02:44.325Z,22.91
2022-07-27T11:05:59.021Z,23.55
2022-07-27T11:08:47.514Z,22.74
2022-07-27T11:11:33.653Z,22.89
2022-07-27T11:14:19.329Z,23.04
2022-07-27T11:20:23.860Z,22.24
2022-07-27T11:26:29.636Z,21.52
2022-07-27T11:29:17.398Z,21.10
2022-07-27T11:32:03.744Z,20.80
2022-07-27T11:34:50.490Z,21.04
2022-07-27T11:37:35.376Z,21.09
2022-07-27T11:40:53.804Z,21.24
2022-07-27T11:43:37.170Z,21.09
2022-07-27T11:46:25.770Z,21.37
2022-07-27T11:49:12.254Z,21.48
2022-07-27T11:52:00.589Z,21.98
2022-07-27T11:58:05.326Z,24.13
2022-07-27T12:00:50.121Z,25.35
2022-07-27T12:03:46.757Z,25.45
2022-07-27T12:06:33.555Z,25.65
2022-07-27T12:09:18.842Z,24.71
2022-07-27T12:12:19.029Z,23.41
2022-07-27T12:15:43.119Z,21.99
2022-07-27T12:18:18.169Z,22.19
2022-07-27T12:21:03.612Z,22.01
2022-07-27T12:23:50.766Z,22.20
2022-07-27T12:26:37.606Z,22.34
2022-07-27T12:29:22.382Z,22.37
2022-07-27T12:32:07.247Z,21.87
2022-07-27T12:34:52.967Z,21.75
2022-07-27T12:37:38.108Z,21.67
2022-07-27T12:40:23.617Z,22.08
2022-07-27T12:43:08.720Z,22.67
2022-07-27T12:45:55.195Z,23.52
2022-07-27T12:48:42.158Z,24.62
2022-07-27T12:51:27.430Z,24.91
2022-07-27T12:54:12.319Z,24.97
2022-07-27T12:56:57.290Z,23.80
2022-07-27T12:59:45.088Z,23.85
2022-07-27T13:02:30.066Z,23.66
2022-07-27T13:05:16.035Z,23.59
2022-07-27T13:08:01.772Z,23.01
2022-07-27T13:10:46.636Z,22.13
2022-07-27T13:13:31.484Z,22.15
2022-07-27T13:16:16.331Z,22.27
2022-07-27T13:19:01.862Z,22.34
2022-07-27T13:21:46.647Z,22.26
2022-07-27T13:24:31.653Z,22.23
2022-07-27T13:27:16.549Z,22.10
2022-07-27T13:30:07.725Z,22.14
2022-07-27T13:32:53.452Z,22.08
2022-07-27T13:35:39.143Z,22.04
2022-07-27T13:38:27.218Z,22.20
2022-07-27T13:41:13.135Z,22.27
2022-07-27T13:43:58.382Z,22.26
2022-07-27T13:46:44.572Z,22.26
2022-07-27T13:49:30.179Z,22.21
2022-07-27T13:52:15.362Z,22.11
2022-07-27T13:55:01.226Z,22.15
2022-07-27T13:57:46.735Z,22.25
2022-07-27T14:00:32.469Z,22.06
2022-07-27T14:03:17.937Z,21.86
2022-07-27T14:06:06.658Z,21.89
2022-07-27T14:08:54.225Z,21.82
2022-07-27T14:11:39.705Z,21.76
2022-07-27T14:14:36.397Z,21.79
2022-07-27T14:17:21.960Z,22.01
2022-07-27T14:20:08.234Z,22.21
2022-07-27T14:22:53.418Z,22.48
2022-07-27T14:25:38.855Z,22.39
2022-07-27T14:28:25.592Z,22.24
2022-07-27T14:31:12.239Z,22.35
2022-07-27T14:33:57.121Z,22.28
2022-07-27T14:36:42.684Z,22.14
2022-07-27T14:39:27.800Z,22.16
2022-07-27T14:42:12.993Z,22.31
2022-07-27T14:44:58.547Z,22.09
2022-07-27T14:47:43.774Z,21.66
2022-07-27T14:50:28.813Z,21.62
2022-07-27T14:53:14.134Z,21.74
2022-07-27T14:55:59.610Z,21.43
2022-07-27T14:58:44.512Z,21.55
2022-07-27T15:01:30.209Z,21.61
2022-07-27T15:04:15.573Z,21.48
2022-07-27T15:07:01.037Z,21.62
2022-07-27T15:09:47.165Z,21.36
2022-07-27T15:12:37.543Z,21.41
2022-07-27T15:15:23.072Z,21.38
2022-07-27T15:18:11.842Z,21.53
2022-07-27T15:20:57.189Z,21.37
2022-07-27T15:23:43.603Z,21.56
2022-07-27T15:26:28.719Z,21.53
2022-07-27T15:29:15.103Z,21.34
2022-07-27T15:32:00.748Z,21.16
2022-07-27T15:34:46.072Z,21.20
2022-07-27T15:37:31.600Z,21.23
2022-07-27T15:40:16.872Z,21.27
2022-07-27T15:43:07.173Z,21.35
2022-07-27T15:45:52.334Z,21.28
2022-07-27T15:48:37.746Z,21.26
2022-07-27T15:51:23.165Z,21.20
2022-07-27T15:54:09.685Z,21.29
2022-07-27T15:56:55.093Z,20.73
2022-07-27T15:59:40.263Z,20.92
2022-07-27T16:02:25.715Z,20.91
2022-07-27T16:05:11.533Z,21.10
2022-07-27T16:07:56.603Z,20.97
2022-07-27T16:10:42.928Z,21.01
2022-07-27T16:13:28.358Z,21.17
2022-07-27T16:16:14.183Z,21.21
2022-07-27T16:19:13.664Z,21.19
2022-07-27T16:21:59.452Z,21.17
2022-07-27T16:24:44.886Z,21.25
2022-07-27T16:27:30.189Z,21.34
2022-07-27T16:30:20.834Z,20.98
2022-07-27T16:33:06.348Z,20.90
2022-07-27T16:35:51.509Z,20.66
2022-07-27T16:38:49.635Z,20.62
2022-07-27T16:41:35.822Z,20.87
2022-07-27T16:44:21.503Z,20.38
2022-07-27T16:47:07.034Z,20.44
2022-07-27T16:49:56.238Z,20.48
2022-07-27T16:52:41.616Z,20.53
2022-07-27T16:55:27.885Z,20.67
2022-07-27T16:58:12.804Z,20.59
2022-07-27T17:01:27.605Z,20.59
2022-07-27T17:04:15.846Z,20.20
2022-07-27T17:07:00.883Z,20.39
2022-07-27T17:09:46.372Z,20.52
2022-07-27T17:12:48.498Z,20.20
2022-07-27T17:15:33.708Z,20.25
2022-07-27T17:18:20.090Z,20.37
2022-07-27T17:21:05.710Z,20.21
2022-07-27T17:23:54.168Z,20.04
2022-07-27T17:26:39.575Z,19.96
2022-07-27T17:29:24.929Z,19.85
2022-07-27T17:32:10.377Z,20.06
2022-07-27T17:34:55.719Z,20.05
2022-07-27T17:38:04.463Z,20.18
2022-07-27T17:40:46.491Z,20.01
2022-07-27T17:43:34.823Z,20.06
2022-07-27T17:46:20.586Z,19.93
2022-07-27T17:49:05.648Z,19.92
2022-07-27T17:52:04.016Z,19.89
2022-07-27T17:54:49.282Z,19.90
2022-07-27T18:01:46.544Z,19.86
2022-07-27T18:04:39.183Z,19.91
2022-07-27T18:07:24.694Z,19.83
2022-07-27T18:10:10.232Z,19.69
2022-07-27T18:12:55.694Z,19.68
2022-07-27T18:15:40.850Z,19.82
2022-07-27T18:18:27.233Z,19.74
2022-07-27T18:21:12.753Z,19.60
2022-07-27T18:23:58.094Z,19.58
2022-07-27T18:26:43.389Z,19.33
2022-07-27T18:29:28.489Z,19.38
2022-07-27T18:32:13.836Z,19.15
2022-07-27T18:34:59.314Z,19.11
2022-07-27T18:37:44.678Z,18.98
2022-07-27T18:40:45.463Z,18.87
2022-07-27T18:43:31.065Z,18.91
2022-07-27T18:46:20.809Z,18.92
2022-07-27T18:49:06.174Z,18.78
2022-07-27T18:51:54.680Z,18.84
2022-07-27T18:54:39.777Z,18.72
2022-07-27T18:57:25.164Z,18.51
2022-07-27T19:00:11.585Z,18.64
2022-07-27T19:02:58.627Z,18.60
2022-07-27T19:05:43.680Z,18.58
2022-07-27T19:08:30.780Z,18.59
2022-07-27T19:11:18.583Z,18.51
2022-07-27T19:14:03.515Z,18.38
2022-07-27T19:16:50.007Z,18.35
2022-07-27T19:19:35.339Z,18.32
2022-07-27T19:22:20.356Z,18.34
2022-07-27T19:25:06.124Z,18.22
2022-07-27T19:27:54.506Z,17.90
2022-07-27T19:30:40.508Z,17.87
2022-07-27T19:33:25.853Z,17.65
2022-07-27T19:36:11.216Z,17.45
2022-07-27T19:38:56.608Z,17.40
2022-07-27T19:41:42.416Z,17.47
2022-07-27T19:44:27.915Z,17.40
2022-07-27T19:47:13.751Z,17.35
2022-07-27T19:49:59.108Z,17.20
2022-07-27T19:52:44.414Z,17.25
2022-07-27T19:55:29.961Z,17.23
2022-07-27T19:58:15.521Z,17.20
2022-07-27T20:01:00.669Z,17.08
2022-07-27T20:03:52.146Z,16.96
2022-07-27T20:06:40.245Z,16.90
2022-07-27T20:09:25.479Z,16.70
2022-07-27T20:12:10.815Z,16.46
2022-07-27T20:14:56.284Z,16.37
2022-07-27T20:17:41.706Z,16.34
2022-07-27T20:20:27.257Z,16.37
2022-07-27T20:23:13.064Z,16.31
2022-07-27T20:25:58.411Z,16.30
2022-07-27T20:28:43.467Z,16.23
2022-07-27T20:31:28.665Z,16.10
2022-07-27T20:34:14.042Z,16.06
2022-07-27T20:36:59.261Z,16.09
2022-07-27T20:39:44.111Z,15.99
2022-07-27T20:42:29.420Z,15.89
2022-07-27T20:45:14.855Z,15.92
2022-07-27T20:48:00.136Z,15.86
2022-07-27T20:50:44.913Z,15.87
2022-07-27T20:53:30.329Z,15.83
2022-07-27T20:56:15.670Z,15.77
2022-07-27T20:59:01.075Z,15.69
2022-07-27T21:01:46.402Z,15.61
2022-07-27T21:04:31.605Z,15.51
2022-07-27T21:07:17.425Z,15.39
2022-07-27T21:10:03.938Z,15.28
2022-07-27T21:12:49.518Z,15.37
2022-07-27T21:15:35.125Z,15.39
2022-07-27T21:18:20.478Z,15.36
2022-07-27T21:21:05.916Z,15.05
2022-07-27T21:23:51.274Z,15.24
2022-07-27T21:26:36.695Z,15.34
2022-07-27T21:29:23.008Z,15.35
2022-07-27T21:32:08.476Z,15.29
2022-07-27T21:34:53.848Z,15.23
2022-07-27T21:37:39.174Z,15.20
2022-07-27T21:40:24.934Z,15.10
2022-07-27T21:43:10.141Z,15.19
2022-07-27T21:45:55.511Z,15.16
2022-07-27T21:48:40.980Z,15.09
2022-07-27T21:51:26.236Z,15.03
2022-07-27T21:54:11.960Z,14.99
2022-07-27T21:56:57.087Z,14.98
2022-07-27T21:59:42.562Z,14.90
2022-07-27T22:02:28.151Z,14.82
2022-07-27T22:05:13.869Z,14.76
2022-07-27T22:07:59.254Z,14.74
2022-07-27T22:10:44.483Z,14.71
2022-07-27T22:13:30.380Z,14.73
2022-07-27T22:16:16.036Z,14.72
2022-07-27T22:19:01.407Z,14.62
2022-07-27T22:21:47.299Z,14.56
2022-07-27T22:24:32.705Z,14.61
2022-07-27T22:27:18.004Z,14.65
2022-07-27T22:30:05.913Z,14.51
2022-07-27T22:32:51.070Z,14.61
2022-07-27T22:35:36.680Z,14.61
2022-07-27T22:38:21.970Z,14.56
2022-07-27T22:41:07.299Z,14.50
2022-07-27T22:43:52.482Z,14.40
2022-07-27T22:46:37.892Z,14.35
2022-07-27T22:49:23.215Z,14.35
2022-07-27T22:52:08.584Z,14.32
2022-07-27T22:54:53.974Z,14.32
2022-07-27T22:57:39.487Z,14.33
2022-07-27T23:00:24.309Z,14.24
2022-07-27T23:03:09.849Z,14.17
2022-07-27T23:05:55.169Z,14.16
2022-07-27T23:08:40.675Z,14.23
2022-07-27T23:11:26.048Z,14.30
2022-07-27T23:14:13.078Z,14.25
2022-07-27T23:16:58.455Z,14.23
2022-07-27T23:19:43.806Z,14.23
2022-07-27T23:22:29.216Z,14.21
2022-07-27T23:25:14.706Z,14.27
2022-07-27T23:27:59.901Z,14.26
2022-07-27T23:30:44.809Z,14.26
2022-07-27T23:36:56.490Z,14.29
2022-07-27T23:39:42.015Z,14.29
2022-07-27T23:42:27.547Z,14.34
2022-07-27T23:45:12.876Z,14.38
2022-07-27T23:47:58.276Z,14.32
2022-07-27T23:53:29.261Z,14.33
2022-07-27T23:56:15.081Z,14.27
2022-07-27T23:58:59.891Z,14.21
